Time;durP1;ratioP1;P1;durP2;ratioP2;P2;SDS_P1;SDS_P2;PMS_P1;PMS_P2;Temp;Humidity;BMP_temperature;BMP_pressure;BME280_temperature;BME280_humidity;BME280_pressure;Samples;Min_cycle;Max_cycle;Signal;HPM_P1;HPM_P2
2022/08/03 00:00:05;;;;;;;;;;;18.50;99.90;;;;;;5074899;28;19965;-65
2022/08/03 00:02:30;;;;;;;;;;;18.40;99.90;;;;;;5075152;28;20386;-64
2022/08/03 00:04:56;;;;;;;;;;;18.40;99.90;;;;;;5074688;28;19909;-64
2022/08/03 00:07:21;;;;;;;;;;;18.40;99.90;;;;;;5074636;28;19912;-64
2022/08/03 00:09:47;;;;;;;;;;;18.40;99.90;;;;;;5074846;28;19909;-64
2022/08/03 00:12:12;;;;;;;;;;;18.30;99.90;;;;;;5074806;28;20376;-64
2022/08/03 00:14:38;;;;;;;;;;;18.30;99.90;;;;;;5074353;28;19924;-64
2022/08/03 00:17:03;;;;;;;;;;;18.20;99.90;;;;;;5074722;28;19978;-64
2022/08/03 00:19:29;;;;;;;;;;;18.20;99.90;;;;;;5074681;28;20331;-64
2022/08/03 00:21:54;;;;;;;;;;;18.20;99.90;;;;;;5074387;28;19942;-64
2022/08/03 00:24:20;;;;;;;;;;;18.10;99.90;;;;;;5074579;28;19915;-64
2022/08/03 00:26:46;;;;;;;;;;;18.10;99.90;;;;;;5074536;28;19962;-64
2022/08/03 00:29:11;;;;;;;;;;;18.10;99.90;;;;;;5074505;28;20345;-64
2022/08/03 00:31:36;;;;;;;;;;;18.10;99.90;;;;;;5074402;28;19908;-64
2022/08/03 00:34:02;;;;;;;;;;;18.10;99.90;;;;;;5074119;28;19913;-64
2022/08/03 00:36:27;;;;;;;;;;;18.00;99.90;;;;;;5074025;28;20011;-64
2022/08/03 00:38:53;;;;;;;;;;;18.00;99.90;;;;;;5074317;28;19909;-64
2022/08/03 00:41:19;;;;;;;;;;;18.00;99.90;;;;;;5073717;28;19908;-64
2022/08/03 00:43:46;;;;;;;;;;;18.00;99.90;;;;;;5073985;28;19912;-64
2022/08/03 00:46:11;;;;;;;;;;;18.00;99.90;;;;;;5074255;28;19951;-64
2022/08/03 00:48:37;;;;;;;;;;;18.00;99.90;;;;;;5055957;28;20313;-64
2022/08/03 00:51:02;;;;;;;;;;;18.00;99.90;;;;;;5073904;28;19909;-64
2022/08/03 00:53:28;;;;;;;;;;;18.00;99.90;;;;;;5073838;28;19955;-64
2022/08/03 00:55:53;;;;;;;;;;;18.00;99.90;;;;;;5073739;28;19912;-64
2022/08/03 00:58:19;;;;;;;;;;;18.00;99.90;;;;;;5073816;28;19922;-64
2022/08/03 01:00:44;;;;;;;;;;;18.00;99.90;;;;;;5073771;28;19930;-64
2022/08/03 01:03:11;;;;;;;;;;;18.00;99.90;;;;;;5073742;28;19912;-64
2022/08/03 01:05:44;;;;;;;;;;;18.00;99.90;;;;;;5073974;28;19951;-65
2022/08/03 01:08:13;;;;;;;;;;;17.90;99.90;;;;;;5073943;28;20317;-65
2022/08/03 01:10:58;;;;;;;;;;;17.90;99.90;;;;;;5073702;28;19908;-64
2022/08/03 01:13:28;;;;;;;;;;;17.90;99.90;;;;;;5073277;28;19909;-64
2022/08/03 01:16:11;;;;;;;;;;;17.80;99.90;;;;;;5073514;28;19919;-64
2022/08/03 01:18:40;;;;;;;;;;;17.80;99.90;;;;;;5073567;28;19999;-64
2022/08/03 01:21:09;;;;;;;;;;;17.80;99.90;;;;;;5073847;28;19995;-64
2022/08/03 01:23:46;;;;;;;;;;;17.80;99.90;;;;;;5073580;28;19916;-64
2022/08/03 01:26:31;;;;;;;;;;;17.70;99.90;;;;;;5073434;28;20270;-64
2022/08/03 01:29:02;;;;;;;;;;;17.70;99.90;;;;;;5073241;28;19951;-64
2022/08/03 01:31:31;;;;;;;;;;;17.60;99.90;;;;;;5073718;28;20290;-64
2022/08/03 01:33:59;;;;;;;;;;;17.70;99.90;;;;;;5073426;28;20103;-64
2022/08/03 01:36:28;;;;;;;;;;;17.60;99.90;;;;;;5055714;28;20358;-64
2022/08/03 01:38:54;;;;;;;;;;;17.60;99.90;;;;;;5073362;28;20424;-64
2022/08/03 01:41:23;;;;;;;;;;;17.60;99.90;;;;;;5073383;28;20414;-64
2022/08/03 01:43:49;;;;;;;;;;;17.60;99.90;;;;;;5055403;28;19909;-64
2022/08/03 01:46:16;;;;;;;;;;;17.60;99.90;;;;;;5055387;28;19913;-64
2022/08/03 01:48:43;;;;;;;;;;;17.50;99.90;;;;;;5073550;28;19914;-64
2022/08/03 01:51:09;;;;;;;;;;;17.50;99.90;;;;;;5073310;28;19976;-64
2022/08/03 01:53:35;;;;;;;;;;;17.40;99.90;;;;;;5077601;28;19944;-65
2022/08/03 01:56:02;;;;;;;;;;;17.40;99.90;;;;;;5077076;28;19913;-65
2022/08/03 01:58:28;;;;;;;;;;;17.40;99.90;;;;;;5077137;28;19909;-65
2022/08/03 02:00:58;;;;;;;;;;;17.40;99.90;;;;;;5077346;28;20313;-64
2022/08/03 02:03:24;;;;;;;;;;;17.30;99.90;;;;;;5077279;28;19930;-64
2022/08/03 02:05:51;;;;;;;;;;;17.30;99.90;;;;;;5077291;28;19908;-65
2022/08/03 02:08:17;;;;;;;;;;;17.30;99.90;;;;;;5059128;28;19909;-64
2022/08/03 02:10:44;;;;;;;;;;;17.30;99.90;;;;;;5076923;28;19909;-64
2022/08/03 02:13:11;;;;;;;;;;;17.30;99.90;;;;;;5077097;28;19908;-65
2022/08/03 02:15:37;;;;;;;;;;;17.20;99.90;;;;;;5076542;28;19920;-64
2022/08/03 02:18:04;;;;;;;;;;;17.20;99.90;;;;;;5059204;28;19970;-63
2022/08/03 02:20:31;;;;;;;;;;;17.20;99.90;;;;;;5077008;28;19908;-64
2022/08/03 02:22:57;;;;;;;;;;;17.20;99.90;;;;;;5058837;28;19918;-64
2022/08/03 02:25:23;;;;;;;;;;;17.20;99.90;;;;;;5076638;28;19915;-64
2022/08/03 02:27:54;;;;;;;;;;;17.20;99.90;;;;;;5076877;28;19930;-64
2022/08/03 02:30:20;;;;;;;;;;;17.20;99.90;;;;;;5076548;28;19909;-64
2022/08/03 02:32:50;;;;;;;;;;;17.20;99.90;;;;;;5076524;28;19909;-64
2022/08/03 02:35:17;;;;;;;;;;;17.10;99.90;;;;;;5076687;28;20336;-64
2022/08/03 02:37:45;;;;;;;;;;;17.10;99.90;;;;;;5076716;28;20275;-65
2022/08/03 02:40:11;;;;;;;;;;;17.10;99.90;;;;;;5076707;28;20358;-64
2022/08/03 02:42:37;;;;;;;;;;;17.10;99.90;;;;;;5076610;28;19909;-65
2022/08/03 02:45:05;;;;;;;;;;;17.10;99.90;;;;;;5076589;28;20338;-64
2022/08/03 02:47:31;;;;;;;;;;;17.10;99.90;;;;;;5076226;28;19916;-64
2022/08/03 02:49:58;;;;;;;;;;;17.10;99.90;;;;;;5076211;28;19909;-63
2022/08/03 02:52:25;;;;;;;;;;;17.00;99.90;;;;;;5076374;28;20381;-63
2022/08/03 02:54:52;;;;;;;;;;;17.00;99.90;;;;;;5076329;28;20334;-63
2022/08/03 02:57:18;;;;;;;;;;;17.00;99.90;;;;;;5076290;28;19915;-63
2022/08/03 02:59:44;;;;;;;;;;;17.00;99.90;;;;;;5076278;28;19909;-63
2022/08/03 03:02:10;;;;;;;;;;;17.00;99.90;;;;;;5075972;28;20256;-64
2022/08/03 03:04:36;;;;;;;;;;;17.00;99.90;;;;;;5075515;28;19995;-63
2022/08/03 03:07:02;;;;;;;;;;;16.90;99.90;;;;;;5075878;28;20326;-64
2022/08/03 03:09:27;;;;;;;;;;;16.90;99.90;;;;;;5075774;28;20306;-64
2022/08/03 03:11:53;;;;;;;;;;;16.90;99.90;;;;;;5075785;28;19959;-64
2022/08/03 03:14:20;;;;;;;;;;;17.00;99.90;;;;;;5075483;28;20011;-64
2022/08/03 03:16:46;;;;;;;;;;;17.00;99.90;;;;;;5075723;28;19921;-64
2022/08/03 03:19:13;;;;;;;;;;;17.00;99.90;;;;;;5075622;28;19915;-64
2022/08/03 03:21:38;;;;;;;;;;;17.00;99.90;;;;;;5075862;28;20397;-64
2022/08/03 03:24:05;;;;;;;;;;;17.00;99.90;;;;;;5075663;28;19962;-64
2022/08/03 03:26:30;;;;;;;;;;;17.00;99.90;;;;;;5075715;28;19908;-64
2022/08/03 03:28:56;;;;;;;;;;;17.00;99.90;;;;;;5075427;28;20385;-64
2022/08/03 03:31:22;;;;;;;;;;;17.00;99.90;;;;;;5075644;28;19909;-64
2022/08/03 03:33:47;;;;;;;;;;;17.00;99.90;;;;;;5075331;28;19954;-64
2022/08/03 03:36:13;;;;;;;;;;;17.00;99.90;;;;;;5057464;28;20302;-64
2022/08/03 03:38:39;;;;;;;;;;;17.00;99.90;;;;;;5075491;28;19909;-65
2022/08/03 03:41:04;;;;;;;;;;;17.00;99.90;;;;;;5075234;28;19919;-63
2022/08/03 03:43:30;;;;;;;;;;;17.00;99.90;;;;;;5075133;28;19909;-64
2022/08/03 03:45:57;;;;;;;;;;;16.90;99.90;;;;;;5075106;28;19908;-64
2022/08/03 03:48:23;;;;;;;;;;;16.90;99.90;;;;;;5075323;28;19958;-64
2022/08/03 03:50:49;;;;;;;;;;;16.90;99.90;;;;;;5075262;28;20274;-64
2022/08/03 03:53:14;;;;;;;;;;;16.90;99.90;;;;;;5074999;28;20043;-64
2022/08/03 03:55:40;;;;;;;;;;;16.90;99.90;;;;;;5075138;28;19912;-64
2022/08/03 03:58:06;;;;;;;;;;;16.90;99.90;;;;;;5075127;28;20025;-64
2022/08/03 04:00:34;;;;;;;;;;;16.90;99.90;;;;;;5075113;28;20332;-64
2022/08/03 04:02:59;;;;;;;;;;;17.00;99.90;;;;;;5074762;28;19970;-64
2022/08/03 04:11:18;;;;;;;;;;;17.00;99.90;;;;;;5074417;28;19908;-63
2022/08/03 04:14:04;;;;;;;;;;;17.00;99.90;;;;;;5074250;28;19917;-63
2022/08/03 04:16:31;;;;;;;;;;;17.00;99.90;;;;;;5073343;28;20332;-63
2022/08/03 04:18:59;;;;;;;;;;;17.00;99.90;;;;;;5074451;28;20286;-64
2022/08/03 04:21:25;;;;;;;;;;;17.00;99.90;;;;;;5074370;28;19961;-63
2022/08/03 04:23:52;;;;;;;;;;;17.00;99.90;;;;;;5074348;28;20007;-64
2022/08/03 04:26:19;;;;;;;;;;;17.10;99.90;;;;;;5074299;28;20351;-64
2022/08/03 04:28:45;;;;;;;;;;;17.10;99.90;;;;;;5074516;28;19913;-64
2022/08/03 04:31:12;;;;;;;;;;;17.10;99.90;;;;;;5074436;28;19909;-63
2022/08/03 04:33:38;;;;;;;;;;;17.20;99.90;;;;;;5056573;28;19909;-64
2022/08/03 04:36:05;;;;;;;;;;;17.20;99.90;;;;;;5074025;28;19912;-64
2022/08/03 04:38:33;;;;;;;;;;;17.30;99.90;;;;;;5074355;28;19915;-63
2022/08/03 04:40:59;;;;;;;;;;;17.40;99.90;;;;;;5073920;28;19915;-64
2022/08/03 04:43:26;;;;;;;;;;;17.50;99.90;;;;;;5074259;28;19942;-64
2022/08/03 04:45:51;;;;;;;;;;;17.60;99.90;;;;;;5074264;28;19931;-63
2022/08/03 04:48:18;;;;;;;;;;;17.60;99.90;;;;;;5074211;28;20354;-64
2022/08/03 04:50:45;;;;;;;;;;;17.70;99.90;;;;;;5073965;28;20003;-64
2022/08/03 04:53:11;;;;;;;;;;;17.90;99.90;;;;;;5074079;28;20274;-63
2022/08/03 04:55:36;;;;;;;;;;;18.10;99.90;;;;;;5074015;28;19912;-64
2022/08/03 04:58:02;;;;;;;;;;;18.60;99.90;;;;;;5055881;28;19957;-64
2022/08/03 05:00:28;;;;;;;;;;;19.70;99.90;;;;;;5074037;28;19912;-64
2022/08/03 05:02:54;;;;;;;;;;;20.80;99.90;;;;;;5073751;28;19908;-64
2022/08/03 05:05:20;;;;;;;;;;;21.00;99.90;;;;;;5073665;28;19908;-64
2022/08/03 05:07:45;;;;;;;;;;;20.80;99.90;;;;;;5055802;28;19920;-64
2022/08/03 05:10:11;;;;;;;;;;;20.70;99.90;;;;;;5055728;28;19908;-64
2022/08/03 05:12:37;;;;;;;;;;;20.70;99.90;;;;;;5073691;28;19908;-64
2022/08/03 05:15:03;;;;;;;;;;;20.70;99.90;;;;;;5073356;28;20011;-64
2022/08/03 05:17:28;;;;;;;;;;;20.50;99.90;;;;;;5073841;28;19955;-64
2022/08/03 05:19:54;;;;;;;;;;;20.40;99.90;;;;;;5055928;28;19915;-64
2022/08/03 05:22:21;;;;;;;;;;;20.30;99.90;;;;;;5073465;28;19908;-64
2022/08/03 05:24:46;;;;;;;;;;;20.20;99.90;;;;;;5073507;28;19910;-64
2022/08/03 05:27:18;;;;;;;;;;;20.10;99.90;;;;;;5073142;28;19955;-64
2022/08/03 05:29:44;;;;;;;;;;;20.10;99.90;;;;;;5073755;28;19931;-64
2022/08/03 05:32:09;;;;;;;;;;;20.20;99.90;;;;;;5073403;28;20383;-64
2022/08/03 05:34:34;;;;;;;;;;;20.30;99.90;;;;;;5073550;28;19913;-64
2022/08/03 05:37:00;;;;;;;;;;;20.40;99.90;;;;;;5073305;28;19908;-64
2022/08/03 05:39:25;;;;;;;;;;;20.50;99.90;;;;;;5073638;28;19909;-65
2022/08/03 05:41:51;;;;;;;;;;;20.70;99.90;;;;;;5073349;28;19954;-65
2022/08/03 05:44:16;;;;;;;;;;;21.10;99.90;;;;;;5073269;28;20286;-65
2022/08/03 05:46:42;;;;;;;;;;;21.50;99.90;;;;;;5055383;28;19909;-64
2022/08/03 05:49:07;;;;;;;;;;;22.50;99.90;;;;;;5073254;28;19957;-64
2022/08/03 05:51:34;;;;;;;;;;;24.50;99.90;;;;;;5073228;28;19909;-64
2022/08/03 05:53:59;;;;;;;;;;;26.50;99.90;;;;;;5073073;28;20416;-64
2022/08/03 05:56:25;;;;;;;;;;;28.90;99.90;;;;;;5073165;28;19916;-65
2022/08/03 05:58:51;;;;;;;;;;;29.40;99.90;;;;;;5073445;28;20381;-65
2022/08/03 06:01:17;;;;;;;;;;;30.20;99.90;;;;;;5073429;28;20358;-66
2022/08/03 06:03:43;;;;;;;;;;;30.90;98.30;;;;;;5073408;28;19908;-65
2022/08/03 06:06:10;;;;;;;;;;;31.90;94.60;;;;;;5073368;28;20286;-65
2022/08/03 06:08:35;;;;;;;;;;;31.70;94.30;;;;;;5055608;28;19967;-65
2022/08/03 06:11:01;;;;;;;;;;;32.10;92.70;;;;;;5072987;28;19974;-65
2022/08/03 06:13:26;;;;;;;;;;;31.90;92.00;;;;;;5072861;28;19915;-65
2022/08/03 06:15:52;;;;;;;;;;;30.40;94.00;;;;;;5072940;28;20007;-65
2022/08/03 06:18:17;;;;;;;;;;;30.50;94.50;;;;;;5072944;28;19908;-65
2022/08/03 06:20:43;;;;;;;;;;;30.80;94.60;;;;;;5072871;28;19908;-66
2022/08/03 06:23:08;;;;;;;;;;;31.60;93.20;;;;;;5073088;28;19915;-66
2022/08/03 06:25:34;;;;;;;;;;;31.80;91.90;;;;;;5072998;28;19912;-65
2022/08/03 06:27:59;;;;;;;;;;;31.60;91.80;;;;;;5072772;28;19958;-65
2022/08/03 06:30:25;;;;;;;;;;;31.10;91.70;;;;;;5073027;28;19955;-65
2022/08/03 06:32:50;;;;;;;;;;;30.60;92.90;;;;;;5072639;28;19909;-65
2022/08/03 06:35:16;;;;;;;;;;;31.30;92.20;;;;;;5072661;28;19913;-65
2022/08/03 06:37:43;;;;;;;;;;;31.00;92.00;;;;;;5072749;28;19959;-65
2022/08/03 06:40:10;;;;;;;;;;;30.70;92.50;;;;;;5075811;28;19909;-65
2022/08/03 06:42:35;;;;;;;;;;;30.70;93.00;;;;;;5076447;28;19912;-65
2022/08/03 06:45:02;;;;;;;;;;;30.90;92.30;;;;;;5076165;28;20062;-65
2022/08/03 06:47:28;;;;;;;;;;;30.40;92.10;;;;;;5076426;28;19913;-65
2022/08/03 06:49:53;;;;;;;;;;;30.40;92.90;;;;;;5076386;28;19909;-65
2022/08/03 06:52:19;;;;;;;;;;;31.10;92.20;;;;;;5076098;28;20009;-65
2022/08/03 06:54:44;;;;;;;;;;;31.10;91.90;;;;;;5075953;28;19912;-65
2022/08/03 06:57:10;;;;;;;;;;;31.20;91.00;;;;;;5076240;28;19912;-65
2022/08/03 06:59:36;;;;;;;;;;;31.70;90.80;;;;;;5058205;28;19931;-65
2022/08/03 07:02:01;;;;;;;;;;;31.80;89.20;;;;;;5075899;28;19954;-65
2022/08/03 07:04:27;;;;;;;;;;;31.80;89.00;;;;;;5076108;28;19958;-66
2022/08/03 07:06:54;;;;;;;;;;;32.40;90.00;;;;;;5076046;28;19958;-65
2022/08/03 07:09:19;;;;;;;;;;;32.60;89.10;;;;;;5076051;28;19909;-65
2022/08/03 07:11:44;;;;;;;;;;;32.40;88.10;;;;;;5075722;28;19919;-65
2022/08/03 07:14:10;;;;;;;;;;;31.90;88.90;;;;;;5075694;28;19916;-65
2022/08/03 07:16:36;;;;;;;;;;;31.70;90.30;;;;;;5058052;28;19916;-65
2022/08/03 07:19:01;;;;;;;;;;;31.80;90.70;;;;;;5075517;28;19947;-65
2022/08/03 07:21:27;;;;;;;;;;;32.20;91.20;;;;;;5075807;28;19908;-65
2022/08/03 07:23:53;;;;;;;;;;;32.60;90.20;;;;;;5075629;28;19931;-65
2022/08/03 07:26:18;;;;;;;;;;;31.70;90.80;;;;;;5075632;28;20002;-66
2022/08/03 07:28:43;;;;;;;;;;;32.40;90.50;;;;;;5075620;28;19912;-66
2022/08/03 07:31:09;;;;;;;;;;;31.70;90.10;;;;;;5075361;28;20256;-65
2022/08/03 07:33:34;;;;;;;;;;;31.70;91.00;;;;;;5075253;28;19977;-65
2022/08/03 07:36:00;;;;;;;;;;;31.80;90.60;;;;;;5075312;28;20007;-65
2022/08/03 07:38:26;;;;;;;;;;;32.10;90.30;;;;;;5075498;28;20016;-64
2022/08/03 07:40:52;;;;;;;;;;;31.60;91.10;;;;;;5075130;28;19915;-65
2022/08/03 07:43:18;;;;;;;;;;;32.30;90.40;;;;;;5075233;28;19909;-65
2022/08/03 07:45:43;;;;;;;;;;;32.00;89.10;;;;;;5075126;28;19974;-65
2022/08/03 07:48:09;;;;;;;;;;;31.60;90.20;;;;;;5075080;28;20416;-65
2022/08/03 07:50:34;;;;;;;;;;;31.40;90.50;;;;;;5074776;28;20111;-66
2022/08/03 07:53:00;;;;;;;;;;;31.70;91.00;;;;;;5056885;28;20279;-66
2022/08/03 07:55:26;;;;;;;;;;;31.30;90.70;;;;;;5074681;28;20003;-66
2022/08/03 07:58:11;;;;;;;;;;;32.30;90.10;;;;;;5074690;28;19909;-66
2022/08/03 08:00:36;;;;;;;;;;;33.30;87.40;;;;;;5074851;28;19909;-66
2022/08/03 08:03:02;;;;;;;;;;;33.10;88.30;;;;;;5074632;28;19915;-66
2022/08/03 08:05:28;;;;;;;;;;;32.30;90.00;;;;;;5074495;28;19920;-65
2022/08/03 08:07:54;;;;;;;;;;;31.20;90.40;;;;;;5074763;28;19909;-66
2022/08/03 08:10:19;;;;;;;;;;;30.90;91.70;;;;;;5074714;28;19908;-66
2022/08/03 08:12:45;;;;;;;;;;;30.50;92.40;;;;;;5074590;28;20353;-66
2022/08/03 08:15:10;;;;;;;;;;;30.90;92.00;;;;;;5074200;28;19927;-66
2022/08/03 08:17:52;;;;;;;;;;;31.30;91.70;;;;;;5074628;28;19908;-66
2022/08/03 08:20:19;;;;;;;;;;;31.80;90.70;;;;;;5074336;28;19909;-66
2022/08/03 08:22:45;;;;;;;;;;;31.80;90.50;;;;;;5074492;28;19995;-66
2022/08/03 08:25:10;;;;;;;;;;;32.10;90.40;;;;;;5074264;28;19959;-66
2022/08/03 08:27:40;;;;;;;;;;;31.80;89.80;;;;;;5074500;28;19934;-66
2022/08/03 08:30:06;;;;;;;;;;;31.90;90.50;;;;;;5074474;28;19912;-66
2022/08/03 08:32:31;;;;;;;;;;;32.00;90.20;;;;;;5074170;28;20029;-65
2022/08/03 08:34:56;;;;;;;;;;;32.30;88.50;;;;;;5074361;28;19916;-66
2022/08/03 08:37:22;;;;;;;;;;;32.90;87.60;;;;;;5074348;28;19909;-66
2022/08/03 08:39:47;;;;;;;;;;;32.90;87.50;;;;;;5074285;28;19908;-66
2022/08/03 08:42:14;;;;;;;;;;;32.70;86.30;;;;;;5074250;28;19915;-67
2022/08/03 08:44:39;;;;;;;;;;;32.40;87.00;;;;;;5074251;28;19963;-66
2022/08/03 08:47:06;;;;;;;;;;;32.60;88.20;;;;;;5073904;28;20367;-66
2022/08/03 08:49:34;;;;;;;;;;;32.10;87.20;;;;;;5073919;28;19916;-65
2022/08/03 08:52:01;;;;;;;;;;;31.40;89.00;;;;;;5074102;28;19912;-65
2022/08/03 08:54:28;;;;;;;;;;;31.70;89.90;;;;;;5073852;28;19908;-66
2022/08/03 08:56:55;;;;;;;;;;;32.10;88.30;;;;;;5073949;28;19978;-66
2022/08/03 08:59:22;;;;;;;;;;;32.30;86.20;;;;;;5074006;28;19930;-66
2022/08/03 09:01:47;;;;;;;;;;;32.30;85.30;;;;;;5073463;28;19908;-66
2022/08/03 09:04:13;;;;;;;;;;;32.80;85.30;;;;;;5073984;28;20419;-66
2022/08/03 09:06:38;;;;;;;;;;;33.10;83.00;;;;;;5073632;28;20432;-66
2022/08/03 09:09:04;;;;;;;;;;;32.70;84.30;;;;;;5073550;28;19933;-66
2022/08/03 09:11:30;;;;;;;;;;;32.80;83.20;;;;;;5073626;28;19908;-65
2022/08/03 09:13:55;;;;;;;;;;;32.30;83.60;;;;;;5055391;28;19923;-66
2022/08/03 09:16:21;;;;;;;;;;;32.90;85.30;;;;;;5073731;28;19921;-66
2022/08/03 09:18:48;;;;;;;;;;;33.10;84.40;;;;;;5073773;28;20385;-66
2022/08/03 09:21:17;;;;;;;;;;;33.20;83.00;;;;;;5055923;28;19908;-66
2022/08/03 09:23:45;;;;;;;;;;;33.10;82.60;;;;;;5073710;28;19909;-66
2022/08/03 09:26:11;;;;;;;;;;;32.90;83.40;;;;;;5073419;28;20426;-66
2022/08/03 09:28:37;;;;;;;;;;;33.30;81.90;;;;;;5055373;28;19947;-66
2022/08/03 09:31:02;;;;;;;;;;;32.80;83.20;;;;;;5073408;28;20012;-66
2022/08/03 09:33:28;;;;;;;;;;;32.80;83.00;;;;;;5073270;28;20011;-66
2022/08/03 09:35:55;;;;;;;;;;;32.80;82.30;;;;;;5073450;28;19913;-66
2022/08/03 09:38:24;;;;;;;;;;;33.70;84.30;;;;;;5073206;28;19909;-66
2022/08/03 09:40:50;;;;;;;;;;;33.30;82.90;;;;;;5073432;28;20355;-66
2022/08/03 09:43:16;;;;;;;;;;;33.10;81.30;;;;;;5073463;28;19909;-66
2022/08/03 09:45:43;;;;;;;;;;;33.00;82.30;;;;;;5073251;28;20424;-66
2022/08/03 09:48:28;;;;;;;;;;;33.20;81.70;;;;;;5073209;28;19916;-66
2022/08/03 09:50:56;;;;;;;;;;;32.70;82.60;;;;;;5073085;28;19954;-66
2022/08/03 09:53:21;;;;;;;;;;;32.50;82.80;;;;;;5072554;28;19908;-66
2022/08/03 09:55:51;;;;;;;;;;;32.50;81.60;;;;;;5073252;28;19940;-66
2022/08/03 09:58:16;;;;;;;;;;;32.70;79.80;;;;;;5072983;28;19908;-66
2022/08/03 10:01:02;;;;;;;;;;;32.70;81.50;;;;;;5073069;28;19908;-66
2022/08/03 10:03:30;;;;;;;;;;;32.90;80.40;;;;;;5073024;28;19909;-66
2022/08/03 10:05:56;;;;;;;;;;;33.50;80.90;;;;;;5073037;28;19913;-66
2022/08/03 10:08:22;;;;;;;;;;;33.80;80.30;;;;;;5073088;28;19909;-66
2022/08/03 10:10:48;;;;;;;;;;;33.70;77.70;;;;;;5055064;28;19908;-66
2022/08/03 10:13:15;;;;;;;;;;;33.40;78.70;;;;;;5073385;28;20054;-66
2022/08/03 10:15:40;;;;;;;;;;;33.30;80.80;;;;;;5076918;28;20380;-66
2022/08/03 10:18:06;;;;;;;;;;;33.90;78.70;;;;;;5076986;28;19940;-66
2022/08/03 10:20:35;;;;;;;;;;;33.80;75.20;;;;;;5058891;28;19908;-66
2022/08/03 10:23:01;;;;;;;;;;;34.20;72.70;;;;;;5076652;28;20363;-66
2022/08/03 10:25:28;;;;;;;;;;;34.10;73.60;;;;;;5076568;28;19909;-66
2022/08/03 10:27:55;;;;;;;;;;;33.40;80.20;;;;;;5076830;28;19916;-66
2022/08/03 10:30:21;;;;;;;;;;;33.30;80.00;;;;;;5076798;28;19999;-66
2022/08/03 10:32:51;;;;;;;;;;;32.80;77.80;;;;;;5076684;28;20325;-66
2022/08/03 10:35:18;;;;;;;;;;;32.90;79.80;;;;;;5076657;28;20344;-65
2022/08/03 10:37:48;;;;;;;;;;;33.60;81.40;;;;;;5058606;28;19908;-64
2022/08/03 10:40:14;;;;;;;;;;;32.60;73.50;;;;;;5076591;28;20279;-66
2022/08/03 10:42:43;;;;;;;;;;;32.10;76.30;;;;;;5076317;28;20429;-66
2022/08/03 10:45:12;;;;;;;;;;;32.20;80.20;;;;;;5076484;28;20393;-66
2022/08/03 10:47:38;;;;;;;;;;;32.00;80.50;;;;;;5076358;28;19916;-66
2022/08/03 10:50:04;;;;;;;;;;;31.60;81.00;;;;;;5076063;28;19909;-66
2022/08/03 10:52:30;;;;;;;;;;;32.10;78.90;;;;;;5076293;28;19915;-66
2022/08/03 10:57:57;;;;;;;;;;;31.90;79.50;;;;;;5075784;28;19909;-66
2022/08/03 11:00:23;;;;;;;;;;;32.20;78.80;;;;;;5076273;28;19915;-66
2022/08/03 11:03:09;;;;;;;;;;;32.30;81.30;;;;;;5076172;28;19957;-66
2022/08/03 11:05:36;;;;;;;;;;;31.60;79.20;;;;;;5075739;28;19915;-66
2022/08/03 11:08:18;;;;;;;;;;;31.60;83.80;;;;;;5075896;28;19915;-66
2022/08/03 11:10:44;;;;;;;;;;;32.10;79.60;;;;;;5075835;28;19912;-66
2022/08/03 11:13:11;;;;;;;;;;;32.20;85.30;;;;;;5075705;28;19917;-66
2022/08/03 11:15:36;;;;;;;;;;;32.20;80.80;;;;;;5075474;28;19924;-65
2022/08/03 11:18:10;;;;;;;;;;;31.80;80.00;;;;;;5075911;28;19908;-66
2022/08/03 11:20:43;;;;;;;;;;;32.00;80.10;;;;;;5075817;28;19985;-66
2022/08/03 11:23:09;;;;;;;;;;;32.20;81.20;;;;;;5075798;28;19909;-66
2022/08/03 11:25:54;;;;;;;;;;;32.00;79.80;;;;;;5075096;28;19975;-66
2022/08/03 11:28:27;;;;;;;;;;;32.00;79.00;;;;;;5075257;28;19958;-66
2022/08/03 11:30:53;;;;;;;;;;;32.00;78.70;;;;;;5075417;28;19916;-66
2022/08/03 11:33:33;;;;;;;;;;;32.40;79.70;;;;;;5075646;28;19909;-66
2022/08/03 11:36:00;;;;;;;;;;;32.30;80.10;;;;;;5075277;28;19920;-66
2022/08/03 11:38:25;;;;;;;;;;;32.30;80.40;;;;;;5075592;28;19912;-67
2022/08/03 11:40:51;;;;;;;;;;;32.50;79.70;;;;;;5075154;28;20279;-67
2022/08/03 11:46:03;;;;;;;;;;;31.40;81.80;;;;;;5091147;27;19912;-67
2022/08/03 11:48:37;;;;;;;;;;;31.90;82.60;;;;;;5091360;28;20281;-67
2022/08/03 11:51:03;;;;;;;;;;;32.10;79.70;;;;;;5091024;28;20289;-66
2022/08/03 11:53:29;;;;;;;;;;;32.40;78.70;;;;;;5091219;28;19909;-66
2022/08/03 11:55:57;;;;;;;;;;;32.50;76.70;;;;;;5091172;28;19947;-66
2022/08/03 11:58:23;;;;;;;;;;;32.40;78.20;;;;;;5090912;28;19960;-66
2022/08/03 12:00:49;;;;;;;;;;;32.30;78.30;;;;;;5090863;28;19908;-66
2022/08/03 12:03:16;;;;;;;;;;;32.50;78.50;;;;;;5090780;28;19908;-66
2022/08/03 12:05:43;;;;;;;;;;;32.50;80.60;;;;;;5090781;28;19966;-66
2022/08/03 12:08:10;;;;;;;;;;;32.80;77.60;;;;;;5090628;28;20018;-66
2022/08/03 12:10:36;;;;;;;;;;;33.20;78.20;;;;;;5090934;28;20024;-66
2022/08/03 12:13:04;;;;;;;;;;;33.30;77.00;;;;;;5090583;28;19915;-64
2022/08/03 12:15:32;;;;;;;;;;;33.40;76.30;;;;;;5090592;28;19909;-66
2022/08/03 12:17:58;;;;;;;;;;;33.20;73.80;;;;;;5090630;28;20393;-66
2022/08/03 12:20:26;;;;;;;;;;;33.10;75.50;;;;;;5090398;28;19909;-66
2022/08/03 12:22:52;;;;;;;;;;;32.90;75.00;;;;;;5090615;28;19916;-66
2022/08/03 12:25:20;;;;;;;;;;;32.70;75.10;;;;;;5090422;28;19916;-66
2022/08/03 12:27:45;;;;;;;;;;;32.60;74.80;;;;;;5090567;28;19999;-66
2022/08/03 12:30:11;;;;;;;;;;;32.70;74.10;;;;;;5090200;28;20393;-66
2022/08/03 12:32:36;;;;;;;;;;;33.30;74.70;;;;;;5090510;28;19909;-66
2022/08/03 12:35:04;;;;;;;;;;;33.20;73.30;;;;;;5090247;28;19909;-66
2022/08/03 12:37:30;;;;;;;;;;;32.90;75.00;;;;;;5090152;28;19912;-66
2022/08/03 12:40:00;;;;;;;;;;;33.20;73.50;;;;;;5090359;28;19995;-66
2022/08/03 12:42:29;;;;;;;;;;;32.70;74.20;;;;;;5090309;28;19915;-66
2022/08/03 12:44:54;;;;;;;;;;;32.40;73.60;;;;;;5101237;28;19977;-66
2022/08/03 12:47:20;;;;;;;;;;;33.00;74.70;;;;;;5110547;28;19908;-66
2022/08/03 12:49:48;;;;;;;;;;;32.90;73.00;;;;;;5110242;28;19931;-66
2022/08/03 12:52:14;;;;;;;;;;;33.20;73.20;;;;;;5110169;28;20397;-66
2022/08/03 12:54:39;;;;;;;;;;;33.10;72.90;;;;;;5110396;28;19912;-66
2022/08/03 12:57:06;;;;;;;;;;;33.40;70.90;;;;;;5098177;28;19908;-66
2022/08/03 12:59:32;;;;;;;;;;;33.10;71.20;;;;;;5096702;28;19914;-66
2022/08/03 13:01:58;;;;;;;;;;;33.00;72.90;;;;;;5096640;28;19908;-66
2022/08/03 13:04:25;;;;;;;;;;;32.80;74.40;;;;;;5096547;28;19919;-66
2022/08/03 13:07:07;;;;;;;;;;;33.00;74.30;;;;;;5096564;28;20375;-66
2022/08/03 13:09:42;;;;;;;;;;;33.20;74.20;;;;;;5096291;28;20339;-66
2022/08/03 13:12:09;;;;;;;;;;;32.90;73.60;;;;;;5096221;28;20436;-66
2022/08/03 13:14:35;;;;;;;;;;;32.70;72.60;;;;;;5096499;28;20281;-66
2022/08/03 13:17:00;;;;;;;;;;;32.90;74.40;;;;;;5096408;28;19908;-66
2022/08/03 13:19:26;;;;;;;;;;;32.80;73.50;;;;;;5096270;28;19958;-66
2022/08/03 13:21:51;;;;;;;;;;;32.70;73.80;;;;;;5095985;28;19915;-66
2022/08/03 13:24:18;;;;;;;;;;;32.80;74.20;;;;;;5095959;28;19912;-66
2022/08/03 13:26:43;;;;;;;;;;;33.00;73.40;;;;;;5096143;28;20362;-66
2022/08/03 13:29:09;;;;;;;;;;;33.20;73.50;;;;;;5096186;28;19919;-66
2022/08/03 13:31:34;;;;;;;;;;;33.50;71.40;;;;;;5095841;28;20374;-66
2022/08/03 13:34:00;;;;;;;;;;;33.20;72.50;;;;;;5095765;28;19908;-66
2022/08/03 13:36:26;;;;;;;;;;;33.40;72.00;;;;;;5095755;28;19951;-66
2022/08/03 13:38:51;;;;;;;;;;;33.40;72.20;;;;;;5095963;28;19916;-66
2022/08/03 13:41:16;;;;;;;;;;;32.90;70.80;;;;;;5095665;28;19908;-67
2022/08/03 13:43:42;;;;;;;;;;;33.10;73.40;;;;;;5095336;28;20367;-66
2022/08/03 13:46:07;;;;;;;;;;;33.00;72.00;;;;;;5095614;28;19908;-66
2022/08/03 13:48:33;;;;;;;;;;;32.90;71.50;;;;;;5095498;28;19912;-66
2022/08/03 13:50:58;;;;;;;;;;;33.30;72.10;;;;;;5095519;28;19909;-66
2022/08/03 13:53:24;;;;;;;;;;;33.70;71.80;;;;;;5095498;28;20275;-66
2022/08/03 13:55:49;;;;;;;;;;;33.60;72.30;;;;;;5095686;28;19919;-66
2022/08/03 13:58:15;;;;;;;;;;;33.50;69.80;;;;;;5095257;28;19955;-66
2022/08/03 14:00:40;;;;;;;;;;;33.50;71.00;;;;;;5077446;28;19908;-66
2022/08/03 14:03:06;;;;;;;;;;;33.50;71.80;;;;;;5095265;28;19908;-66
2022/08/03 14:05:32;;;;;;;;;;;33.40;70.70;;;;;;5095358;28;19912;-66
2022/08/03 14:07:59;;;;;;;;;;;33.30;70.50;;;;;;5093855;28;19997;-66
2022/08/03 14:10:25;;;;;;;;;;;33.30;71.00;;;;;;5095273;28;20419;-66
2022/08/03 14:12:50;;;;;;;;;;;33.10;71.50;;;;;;5095338;28;19908;-66
2022/08/03 14:15:16;;;;;;;;;;;33.30;72.40;;;;;;5095275;28;20366;-66
2022/08/03 14:17:41;;;;;;;;;;;33.00;70.40;;;;;;5094974;28;20366;-66
2022/08/03 14:20:07;;;;;;;;;;;33.30;71.00;;;;;;5095201;28;19916;-66
2022/08/03 14:22:33;;;;;;;;;;;33.10;71.70;;;;;;5095174;28;19919;-66
2022/08/03 14:24:58;;;;;;;;;;;33.00;71.30;;;;;;5095025;28;19912;-66